Lotheni — ZR8530 — position and weather

sailwx.info

Track history (hours):
 
Tides and Currents Weather Stations Pressure Air Temp Water Temp Dewpoint Dewpoint Depression Visibility Wind Speed Wind Dir Waves Ship Positions

Lotheni

Last reported at 2016-Dec-04 13:31 UTC. Time now 2016-Dec-04 14:17 UTC.
Position S 29°52' E 031°02'.

Type: Tug. MMSI: 601135800.

Date/timePositionNaut miles runAvg speedWind from/ knotsBaromVisibWave heightAir tempDewpointWater temp
2016-Dec-04 13:31S 29°52' E 031°02'0 0.0
2016-Dec-04 12:31S 29°52' E 031°02'0 0.0
2016-Dec-04 11:31S 29°52' E 031°02'0 0.0
2016-Dec-04 10:19S 29°52' E 031°02'0 0.2
2016-Dec-04 09:33S 29°52' E 031°02'0 0.3
2016-Dec-04 08:33S 29°52' E 031°02'1 1.0
2016-Dec-04 07:30S 29°53' E 031°02'1 0.8
2016-Dec-04 06:33S 29°53' E 031°02'1 0.9
2016-Dec-04 05:32S 29°52' E 031°02'0 0.0
2016-Dec-04 04:32S 29°52' E 031°02'0 0.0
2016-Dec-04 03:32S 29°52' E 031°02'0 0.0
2016-Dec-04 02:32S 29°52' E 031°02'0 0.0
2016-Dec-04 01:32S 29°52' E 031°02'0 0.0
2016-Dec-04 00:32S 29°52' E 031°02'0 0.0
2016-Dec-03 23:29S 29°52' E 031°02'0 0.0
2016-Dec-03 22:32S 29°52' E 031°02'0 0.0
2016-Dec-03 21:32S 29°52' E 031°02'0 0.0
2016-Dec-03 20:29S 29°52' E 031°02'1 0.7
2016-Dec-03 19:33S 29°52' E 031°02'0 0.4
2016-Dec-03 18:33S 29°53' E 031°01'1 0.9
2016-Dec-03 17:32S 29°52' E 031°02'0 0.0
2016-Dec-03 16:32S 29°52' E 031°02'0 0.0
2016-Dec-03 15:32S 29°52' E 031°02'0 0.0
2016-Dec-03 14:32S 29°52' E 031°02'0 0.0
2016-Dec-03 13:32S 29°52' E 031°02'0 0.0
2016-Dec-03 12:29S 29°52' E 031°02'0 0.0
2016-Dec-03 11:32S 29°52' E 031°02'0 0.0
2016-Dec-03 10:14S 29°52' E 031°02'0 0.0
2016-Dec-03 09:32S 29°52' E 031°02'0 0.0
2016-Dec-03 08:29S 29°52' E 031°02'0 0.0
2016-Dec-03 07:32S 29°52' E 031°02'0 0.0
2016-Dec-03 06:32S 29°52' E 031°02'0 0.0
2016-Dec-03 05:32S 29°52' E 031°02'0 0.0
2016-Dec-03 04:26S 29°52' E 031°02'0 0.0
2016-Dec-03 03:32S 29°52' E 031°02'0 0.5
2016-Dec-03 02:33S 29°52' E 031°02'0 0.5
2016-Dec-03 01:33S 29°52' E 031°02'1 1.2
2016-Dec-03 00:33S 29°53' E 031°01'1 1.0
2016-Dec-02 23:32S 29°52' E 031°02'0 0.2
2016-Dec-02 22:30S 29°52' E 031°02'0 0.0
2016-Dec-02 21:27S 29°52' E 031°02'1 1.2
2016-Dec-02 20:33S 29°53' E 031°01'1 0.4
2016-Dec-02 19:13S 29°53' E 031°00'2 3.1
2016-Dec-02 18:33S 29°52' E 031°03'0 0.1
2016-Dec-02 17:33S 29°52' E 031°03'1 1.0
2016-Dec-02 16:33S 29°52' E 031°02'0 0.0
2016-Dec-02 15:33S 29°52' E 031°02'0 0.0
2016-Dec-02 14:33S 29°52' E 031°02'1 1.5
2016-Dec-02 13:33S 29°52' E 031°03'1 1.4
2016-Dec-02 12:30S 29°52' E 031°02'0 0.0
2016-Dec-02 11:33S 29°52' E 031°02'0 0.4
2016-Dec-02 10:33S 29°52' E 031°02'0 0.3
2016-Dec-02 09:31S 29°52' E 031°02'0 0.0
2016-Dec-02 08:31S 29°52' E 031°02'0 0.0
2016-Dec-02 07:31S 29°52' E 031°02'0 0.1
2016-Dec-02 06:14S 29°52' E 031°02'0 0.1
2016-Dec-02 05:31S 29°52' E 031°02'0 0.0
2016-Dec-02 04:31S 29°52' E 031°02'0 0.0
2016-Dec-02 03:31S 29°52' E 031°02'0 0.0
2016-Dec-02 02:31S 29°52' E 031°02'1 0.7
2016-Dec-02 01:33S 29°52' E 031°02'1 0.6
2016-Dec-02 00:31S 29°52' E 031°02'0 0.0
2016-Dec-01 23:28S 29°52' E 031°02'0 0.0
2016-Dec-01 22:31S 29°52' E 031°02'1 0.7
2016-Dec-01 21:33S 29°52' E 031°02'0 0.3
2016-Dec-01 20:33S 29°52' E 031°02'1 1.0
2016-Dec-01 19:33S 29°53' E 031°03'1 1.2
2016-Dec-01 18:31S 29°52' E 031°02'1 1.0
2016-Dec-01 17:33S 29°53' E 031°02'1 0.9
2016-Dec-01 16:32S 29°52' E 031°02'0 0.0
2016-Dec-01 15:32S 29°52' E 031°02'0 0.0
2016-Dec-01 14:32S 29°52' E 031°02'2 1.6
2016-Dec-01 13:33S 29°53' E 031°00'2 1.4
2016-Dec-01 12:24S 29°52' E 031°02'0 0.0
2016-Dec-01 11:33S 29°52' E 031°02'0 0.0
2016-Dec-01 10:27S 29°52' E 031°02'0 0.0
2016-Dec-01 09:33S 29°52' E 031°02'0 0.1
2016-Dec-01 08:28S 29°52' E 031°02'0 0.0
2016-Dec-01 07:28S 29°52' E 031°02'0 0.0
2016-Dec-01 06:31S 29°52' E 031°02'0 0.0
2016-Dec-01 05:31S 29°52' E 031°02'0 0.0
2016-Dec-01 04:33S 29°52' E 031°02'0 0.1
2016-Dec-01 03:33S 29°52' E 031°02'0 0.0
2016-Dec-01 02:33S 29°52' E 031°02'1 0.9
2016-Dec-01 01:30S 29°52' E 031°03'1 1.2
2016-Dec-01 00:33S 29°53' E 031°02'1 1.1
2016-Nov-30 23:33S 29°52' E 031°03'0 0.2
2016-Nov-30 22:33S 29°53' E 031°03'0 0.2
2016-Nov-30 21:31S 29°53' E 031°03'1 0.9
2016-Nov-30 20:30S 29°52' E 031°02'0 0.0
2016-Nov-30 19:33S 29°52' E 031°02'0 0.0
2016-Nov-30 18:33S 29°52' E 031°02'0 0.0
2016-Nov-30 17:33S 29°52' E 031°02'0 0.0
2016-Nov-30 16:33S 29°52' E 031°02'0 0.0
2016-Nov-30 15:33S 29°52' E 031°02'0 0.0
2016-Nov-30 14:33S 29°52' E 031°02'0 0.0
2016-Nov-30 13:33S 29°52' E 031°02'0 0.0
2016-Nov-30 12:33S 29°52' E 031°02'0 0.0
2016-Nov-30 11:33S 29°52' E 031°02'0 0.0
2016-Nov-30 10:33S 29°52' E 031°02'0 0.0
2016-Nov-30 09:33S 29°52' E 031°02'0 0.0
2016-Nov-30 08:30S 29°52' E 031°02'1 1.5
2016-Nov-30 07:32S 29°53' E 031°03'0 0.1
2016-Nov-30 06:32S 29°53' E 031°03'1 1.3
2016-Nov-30 05:29S 29°52' E 031°02'0 0.0
2016-Nov-30 04:32S 29°52' E 031°02'0 0.0
2016-Nov-30 03:32S 29°52' E 031°02'0 0.0
2016-Nov-30 02:32S 29°52' E 031°02'1 1.1
2016-Nov-30 01:32S 29°52' E 031°01'1 1.0
2016-Nov-30 00:28S 29°52' E 031°02'1 0.6
2016-Nov-29 23:32S 29°53' E 031°01'1 0.8
2016-Nov-29 22:30S 29°52' E 031°02'0 0.0
2016-Nov-29 21:33S 29°52' E 031°02'0 0.0
2016-Nov-29 20:30S 29°52' E 031°02'0 0.0
2016-Nov-29 19:33S 29°52' E 031°02'0 0.0
2016-Nov-29 18:29S 29°52' E 031°02'0 0.0
2016-Nov-29 17:32S 29°52' E 031°02'0 0.0
2016-Nov-29 16:32S 29°52' E 031°02'0 0.0
2016-Nov-29 15:29S 29°52' E 031°02'1 1.1
2016-Nov-29 14:32S 29°52' E 031°03'1 1.0
2016-Nov-29 13:29S 29°52' E 031°02'0 0.0
2016-Nov-29 12:32S 29°52' E 031°02'2 1.5
2016-Nov-29 11:30S 29°53' E 031°02'0 0.1
2016-Nov-29 10:30S 29°53' E 031°02'2 1.6
2016-Nov-29 09:32S 29°52' E 031°02'0 0.5
2016-Nov-29 08:33S 29°52' E 031°02'0 0.5
2016-Nov-29 07:31S 29°52' E 031°02'1 1.2
2016-Nov-29 06:29S 29°52' E 031°01'2 2.0
2016-Nov-29 05:33S 29°53' E 031°03'1 1.3
2016-Nov-29 04:30S 29°52' E 031°02'0 0.0
2016-Nov-29 03:33S 29°52' E 031°02'0 0.4
2016-Nov-29 02:19S 29°52' E 031°02'0 0.2
2016-Nov-29 01:34S 29°52' E 031°02'1 0.5
2016-Nov-29 00:34S 29°52' E 031°02'0 0.0
2016-Nov-28 23:31S 29°52' E 031°02'0 0.0
2016-Nov-28 22:31S 29°52' E 031°02'1 1.0
2016-Nov-28 21:31S 29°53' E 031°02'2 1.5
2016-Nov-28 20:31S 29°53' E 031°00'0 0.5
2016-Nov-28 19:29S 29°53' E 031°00'1 1.2
2016-Nov-28 18:33S 29°52' E 031°02'0 0.4
2016-Nov-28 17:28S 29°52' E 031°02'0 0.0
2016-Nov-28 16:31S 29°52' E 031°02'1 1.0
2016-Nov-28 15:25S 29°53' E 031°01'1 1.2
2016-Nov-28 14:31S 29°52' E 031°02'1 0.6
2016-Nov-28 13:33S 29°52' E 031°02'1 0.6
2016-Nov-28 12:33S 29°52' E 031°02'0 0.0
2016-Nov-28 11:33S 29°52' E 031°02'0 0.0
2016-Nov-28 10:30S 29°52' E 031°02'0 0.0
2016-Nov-28 09:33S 29°52' E 031°02'0 0.0
2016-Nov-28 08:33S 29°52' E 031°02'1 1.1
2016-Nov-28 07:33S 29°53' E 031°02'1 1.0
2016-Nov-28 06:25S 29°52' E 031°02'0 0.0
2016-Nov-28 05:31S 29°52' E 031°02'0 0.0
2016-Nov-28 04:28S 29°52' E 031°02'0 0.0
2016-Nov-28 03:31S 29°52' E 031°02'1 0.8
2016-Nov-28 02:33S 29°53' E 031°02'1 0.7
2016-Nov-28 01:25S 29°52' E 031°02'0 0.0
2016-Nov-28 00:28S 29°52' E 031°02'0 0.0
2016-Nov-27 23:22S 29°52' E 031°02'0 0.1
2016-Nov-27 22:34S 29°52' E 031°02'0 0.0
2016-Nov-27 21:19S 29°52' E 031°02'0 0.0
2016-Nov-27 20:31S 29°52' E 031°02'0 0.0
2016-Nov-27 19:31S 29°52' E 031°02'0 0.0
2016-Nov-27 18:31S 29°52' E 031°02'1 0.8
2016-Nov-27 17:33S 29°53' E 031°02'1 0.7
2016-Nov-27 16:26S 29°52' E 031°02'0 0.0
2016-Nov-27 15:32S 29°52' E 031°02'0 0.0
2016-Nov-27 14:32S 29°52' E 031°02'0 0.0
2016-Nov-27 13:32S 29°52' E 031°02'0 0.0
2016-Nov-27 12:26S 29°52' E 031°02'1 1.2
2016-Nov-27 11:33S 29°53' E 031°03'1 1.0
2016-Nov-27 10:32S 29°52' E 031°02'0 0.1
2016-Nov-27 09:32S 29°52' E 031°02'0 0.0
2016-Nov-27 08:32S 29°52' E 031°02'0 0.0
2016-Nov-27 07:32S 29°52' E 031°02'0 0.2
2016-Nov-27 06:32S 29°52' E 031°02'2 1.6
2016-Nov-27 05:33S 29°53' E 031°00'2 1.7
2016-Nov-27 04:33S 29°52' E 031°02'0 0.0
2016-Nov-27 03:27S 29°52' E 031°02'1 1.3
2016-Nov-27 02:31S 29°53' E 031°01'1 1.2
2016-Nov-27 01:33S 29°52' E 031°02'0 0.0
2016-Nov-27 00:27S 29°52' E 031°02'0 0.0
2016-Nov-26 23:30S 29°52' E 031°02'0 0.0
2016-Nov-26 22:33S 29°52' E 031°02'0 0.0
2016-Nov-26 21:31S 29°52' E 031°02'1 1.4
2016-Nov-26 20:33S 29°52' E 031°03'0 0.4
2016-Nov-26 19:31S 29°52' E 031°03'1 0.7
2016-Nov-26 18:32S 29°52' E 031°02'1 0.8
2016-Nov-26 17:34S 29°53' E 031°03'1 1.2
2016-Nov-26 16:31S 29°52' E 031°02'0 0.0
2016-Nov-26 15:28S 29°52' E 031°02'1 0.9
2016-Nov-26 14:33S 29°53' E 031°02'1 0.6
2016-Nov-26 13:32S 29°52' E 031°02'0 0.3
2016-Nov-26 12:32S 29°52' E 031°02'0 0.0
2016-Nov-26 11:33S 29°52' E 031°02'0 0.4
2016-Nov-26 10:33S 29°52' E 031°02'0 0.4
2016-Nov-26 09:32S 29°52' E 031°02'0 0.0
2016-Nov-26 08:29S 29°52' E 031°02'1 1.0
2016-Nov-26 07:33S 29°53' E 031°02'1 0.6
2016-Nov-26 06:33S 29°52' E 031°02'0 0.3
2016-Nov-26 05:33S 29°53' E 031°02'1 0.7
2016-Nov-26 04:30S 29°52' E 031°02'0 0.0
2016-Nov-26 03:30S 29°52' E 031°02'0 0.0
2016-Nov-26 02:30S 29°52' E 031°02'0 0.0
2016-Nov-26 01:33S 29°52' E 031°02'1 1.5
2016-Nov-26 00:33S 29°53' E 031°02'1 0.6
2016-Nov-25 23:33S 29°53' E 031°03'1 0.8
2016-Nov-25 22:33S 29°53' E 031°02'1 0.7
2016-Nov-25 21:33S 29°53' E 031°03'1 1.2
2016-Nov-25 20:27S 29°52' E 031°02'0 0.0
2016-Nov-25 19:27S 29°52' E 031°02'1 1.5
2016-Nov-25 18:33S 29°53' E 031°03'0 0.1
2016-Nov-25 17:33S 29°53' E 031°03'1 1.3
2016-Nov-25 16:29S 29°52' E 031°02'0 0.0
2016-Nov-25 15:26S 29°52' E 031°02'1 1.6
2016-Nov-25 14:31S 29°53' E 031°03'0 0.5
2016-Nov-25 13:33S 29°53' E 031°03'1 1.4
2016-Nov-25 12:33S 29°52' E 031°02'1 1.2
2016-Nov-25 11:31S 29°53' E 031°01'1 0.6
2016-Nov-25 09:33S 29°52' E 031°02'1 1.1
2016-Nov-25 08:33S 29°53' E 031°03'2 1.6
2016-Nov-25 07:19S 29°52' E 031°01'1 1.5
2016-Nov-25 06:33S 29°52' E 031°02'1 1.0
2016-Nov-25 05:31S 29°53' E 031°03'1 1.4
2016-Nov-25 04:29S 29°52' E 031°02'0 0.0
2016-Nov-25 03:29S 29°52' E 031°02'0 0.0
2016-Nov-25 02:23S 29°52' E 031°02'0 0.0
2016-Nov-25 01:32S 29°52' E 031°02'0 0.0
2016-Nov-25 00:26S 29°52' E 031°02'1 0.8
2016-Nov-24 23:33S 29°52' E 031°02'1 0.7
2016-Nov-24 22:32S 29°52' E 031°02'0 0.0
2016-Nov-24 21:32S 29°52' E 031°02'0 0.0
2016-Nov-24 20:29S 29°52' E 031°02'0 0.0
2016-Nov-24 19:29S 29°52' E 031°02'0 0.0
2016-Nov-24 18:29S 29°52' E 031°02'1 1.3
2016-Nov-24 17:33S 29°53' E 031°02'1 1.1
2016-Nov-24 16:30S 29°52' E 031°02'0 0.0
2016-Nov-24 15:33S 29°52' E 031°02'0 0.0
2016-Nov-24 14:33S 29°52' E 031°02'1 0.5
2016-Nov-24 13:33S 29°52' E 031°02'  
Track history (hours):
 
Tides and Currents Weather Stations Pressure Air Temp Water Temp Dewpoint Dewpoint Depression Visibility Wind Speed Wind Dir Waves Ship Positions

Lotheni

Last reported at 2016-Dec-04 13:31 UTC. Time now 2016-Dec-04 14:17 UTC.
Position S 29°52' E 031°02'.

Type: Tug. MMSI: 601135800.

Date/timePositionNaut miles runAvg speedWind from/ knotsBaromVisibWave heightAir tempDewpointWater temp
2016-Dec-04 13:31S 29°52' E 031°02'0 0.0
2016-Dec-04 12:31S 29°52' E 031°02'0 0.0
2016-Dec-04 11:31S 29°52' E 031°02'0 0.0
2016-Dec-04 10:19S 29°52' E 031°02'0 0.2
2016-Dec-04 09:33S 29°52' E 031°02'0 0.3
2016-Dec-04 08:33S 29°52' E 031°02'1 1.0
2016-Dec-04 07:30S 29°53' E 031°02'1 0.8
2016-Dec-04 06:33S 29°53' E 031°02'1 0.9
2016-Dec-04 05:32S 29°52' E 031°02'0 0.0
2016-Dec-04 04:32S 29°52' E 031°02'0 0.0
2016-Dec-04 03:32S 29°52' E 031°02'0 0.0
2016-Dec-04 02:32S 29°52' E 031°02'0 0.0
2016-Dec-04 01:32S 29°52' E 031°02'0 0.0
2016-Dec-04 00:32S 29°52' E 031°02'0 0.0
2016-Dec-03 23:29S 29°52' E 031°02'0 0.0
2016-Dec-03 22:32S 29°52' E 031°02'0 0.0
2016-Dec-03 21:32S 29°52' E 031°02'0 0.0
2016-Dec-03 20:29S 29°52' E 031°02'1 0.7
2016-Dec-03 19:33S 29°52' E 031°02'0 0.4
2016-Dec-03 18:33S 29°53' E 031°01'1 0.9
2016-Dec-03 17:32S 29°52' E 031°02'0 0.0
2016-Dec-03 16:32S 29°52' E 031°02'0 0.0
2016-Dec-03 15:32S 29°52' E 031°02'0 0.0
2016-Dec-03 14:32S 29°52' E 031°02'0 0.0
2016-Dec-03 13:32S 29°52' E 031°02'0 0.0
2016-Dec-03 12:29S 29°52' E 031°02'0 0.0
2016-Dec-03 11:32S 29°52' E 031°02'0 0.0
2016-Dec-03 10:14S 29°52' E 031°02'0 0.0
2016-Dec-03 09:32S 29°52' E 031°02'0 0.0
2016-Dec-03 08:29S 29°52' E 031°02'0 0.0
2016-Dec-03 07:32S 29°52' E 031°02'0 0.0
2016-Dec-03 06:32S 29°52' E 031°02'0 0.0
2016-Dec-03 05:32S 29°52' E 031°02'0 0.0
2016-Dec-03 04:26S 29°52' E 031°02'0 0.0
2016-Dec-03 03:32S 29°52' E 031°02'0 0.5
2016-Dec-03 02:33S 29°52' E 031°02'0 0.5
2016-Dec-03 01:33S 29°52' E 031°02'1 1.2
2016-Dec-03 00:33S 29°53' E 031°01'1 1.0
2016-Dec-02 23:32S 29°52' E 031°02'0 0.2
2016-Dec-02 22:30S 29°52' E 031°02'0 0.0
2016-Dec-02 21:27S 29°52' E 031°02'1 1.2
2016-Dec-02 20:33S 29°53' E 031°01'1 0.4
2016-Dec-02 19:13S 29°53' E 031°00'2 3.1
2016-Dec-02 18:33S 29°52' E 031°03'0 0.1
2016-Dec-02 17:33S 29°52' E 031°03'1 1.0
2016-Dec-02 16:33S 29°52' E 031°02'0 0.0
2016-Dec-02 15:33S 29°52' E 031°02'0 0.0
2016-Dec-02 14:33S 29°52' E 031°02'1 1.5
2016-Dec-02 13:33S 29°52' E 031°03'1 1.4
2016-Dec-02 12:30S 29°52' E 031°02'0 0.0
2016-Dec-02 11:33S 29°52' E 031°02'0 0.4
2016-Dec-02 10:33S 29°52' E 031°02'0 0.3
2016-Dec-02 09:31S 29°52' E 031°02'0 0.0
2016-Dec-02 08:31S 29°52' E 031°02'0 0.0
2016-Dec-02 07:31S 29°52' E 031°02'0 0.1
2016-Dec-02 06:14S 29°52' E 031°02'0 0.1
2016-Dec-02 05:31S 29°52' E 031°02'0 0.0
2016-Dec-02 04:31S 29°52' E 031°02'0 0.0
2016-Dec-02 03:31S 29°52' E 031°02'0 0.0
2016-Dec-02 02:31S 29°52' E 031°02'1 0.7
2016-Dec-02 01:33S 29°52' E 031°02'1 0.6
2016-Dec-02 00:31S 29°52' E 031°02'0 0.0
2016-Dec-01 23:28S 29°52' E 031°02'0 0.0
2016-Dec-01 22:31S 29°52' E 031°02'1 0.7
2016-Dec-01 21:33S 29°52' E 031°02'0 0.3
2016-Dec-01 20:33S 29°52' E 031°02'1 1.0
2016-Dec-01 19:33S 29°53' E 031°03'1 1.2
2016-Dec-01 18:31S 29°52' E 031°02'1 1.0
2016-Dec-01 17:33S 29°53' E 031°02'1 0.9
2016-Dec-01 16:32S 29°52' E 031°02'0 0.0
2016-Dec-01 15:32S 29°52' E 031°02'0 0.0
2016-Dec-01 14:32S 29°52' E 031°02'2 1.6
2016-Dec-01 13:33S 29°53' E 031°00'2 1.4
2016-Dec-01 12:24S 29°52' E 031°02'0 0.0
2016-Dec-01 11:33S 29°52' E 031°02'0 0.0
2016-Dec-01 10:27S 29°52' E 031°02'0 0.0
2016-Dec-01 09:33S 29°52' E 031°02'0 0.1
2016-Dec-01 08:28S 29°52' E 031°02'0 0.0
2016-Dec-01 07:28S 29°52' E 031°02'0 0.0
2016-Dec-01 06:31S 29°52' E 031°02'0 0.0
2016-Dec-01 05:31S 29°52' E 031°02'0 0.0
2016-Dec-01 04:33S 29°52' E 031°02'0 0.1
2016-Dec-01 03:33S 29°52' E 031°02'0 0.0
2016-Dec-01 02:33S 29°52' E 031°02'1 0.9
2016-Dec-01 01:30S 29°52' E 031°03'1 1.2
2016-Dec-01 00:33S 29°53' E 031°02'1 1.1
2016-Nov-30 23:33S 29°52' E 031°03'0 0.2
2016-Nov-30 22:33S 29°53' E 031°03'0 0.2
2016-Nov-30 21:31S 29°53' E 031°03'1 0.9
2016-Nov-30 20:30S 29°52' E 031°02'0 0.0
2016-Nov-30 19:33S 29°52' E 031°02'0 0.0
2016-Nov-30 18:33S 29°52' E 031°02'0 0.0
2016-Nov-30 17:33S 29°52' E 031°02'0 0.0
2016-Nov-30 16:33S 29°52' E 031°02'0 0.0
2016-Nov-30 15:33S 29°52' E 031°02'0 0.0
2016-Nov-30 14:33S 29°52' E 031°02'0 0.0
2016-Nov-30 13:33S 29°52' E 031°02'0 0.0
2016-Nov-30 12:33S 29°52' E 031°02'0 0.0
2016-Nov-30 11:33S 29°52' E 031°02'0 0.0
2016-Nov-30 10:33S 29°52' E 031°02'0 0.0
2016-Nov-30 09:33S 29°52' E 031°02'0 0.0
2016-Nov-30 08:30S 29°52' E 031°02'1 1.5
2016-Nov-30 07:32S 29°53' E 031°03'0 0.1
2016-Nov-30 06:32S 29°53' E 031°03'1 1.3
2016-Nov-30 05:29S 29°52' E 031°02'0 0.0
2016-Nov-30 04:32S 29°52' E 031°02'0 0.0
2016-Nov-30 03:32S 29°52' E 031°02'0 0.0
2016-Nov-30 02:32S 29°52' E 031°02'1 1.1
2016-Nov-30 01:32S 29°52' E 031°01'1 1.0
2016-Nov-30 00:28S 29°52' E 031°02'1 0.6
2016-Nov-29 23:32S 29°53' E 031°01'1 0.8
2016-Nov-29 22:30S 29°52' E 031°02'0 0.0
2016-Nov-29 21:33S 29°52' E 031°02'0 0.0
2016-Nov-29 20:30S 29°52' E 031°02'0 0.0
2016-Nov-29 19:33S 29°52' E 031°02'0 0.0
2016-Nov-29 18:29S 29°52' E 031°02'0 0.0
2016-Nov-29 17:32S 29°52' E 031°02'0 0.0
2016-Nov-29 16:32S 29°52' E 031°02'0 0.0
2016-Nov-29 15:29S 29°52' E 031°02'1 1.1
2016-Nov-29 14:32S 29°52' E 031°03'1 1.0
2016-Nov-29 13:29S 29°52' E 031°02'0 0.0
2016-Nov-29 12:32S 29°52' E 031°02'2 1.5
2016-Nov-29 11:30S 29°53' E 031°02'0 0.1
2016-Nov-29 10:30S 29°53' E 031°02'2 1.6
2016-Nov-29 09:32S 29°52' E 031°02'0 0.5
2016-Nov-29 08:33S 29°52' E 031°02'0 0.5
2016-Nov-29 07:31S 29°52' E 031°02'1 1.2
2016-Nov-29 06:29S 29°52' E 031°01'2 2.0
2016-Nov-29 05:33S 29°53' E 031°03'1 1.3
2016-Nov-29 04:30S 29°52' E 031°02'0 0.0
2016-Nov-29 03:33S 29°52' E 031°02'0 0.4
2016-Nov-29 02:19S 29°52' E 031°02'0 0.2
2016-Nov-29 01:34S 29°52' E 031°02'1 0.5
2016-Nov-29 00:34S 29°52' E 031°02'0 0.0
2016-Nov-28 23:31S 29°52' E 031°02'0 0.0
2016-Nov-28 22:31S 29°52' E 031°02'1 1.0
2016-Nov-28 21:31S 29°53' E 031°02'2 1.5
2016-Nov-28 20:31S 29°53' E 031°00'0 0.5
2016-Nov-28 19:29S 29°53' E 031°00'1 1.2
2016-Nov-28 18:33S 29°52' E 031°02'0 0.4
2016-Nov-28 17:28S 29°52' E 031°02'0 0.0
2016-Nov-28 16:31S 29°52' E 031°02'1 1.0
2016-Nov-28 15:25S 29°53' E 031°01'1 1.2
2016-Nov-28 14:31S 29°52' E 031°02'1 0.6
2016-Nov-28 13:33S 29°52' E 031°02'1 0.6
2016-Nov-28 12:33S 29°52' E 031°02'0 0.0
2016-Nov-28 11:33S 29°52' E 031°02'0 0.0
2016-Nov-28 10:30S 29°52' E 031°02'0 0.0
2016-Nov-28 09:33S 29°52' E 031°02'0 0.0
2016-Nov-28 08:33S 29°52' E 031°02'1 1.1
2016-Nov-28 07:33S 29°53' E 031°02'1 1.0
2016-Nov-28 06:25S 29°52' E 031°02'0 0.0
2016-Nov-28 05:31S 29°52' E 031°02'0 0.0
2016-Nov-28 04:28S 29°52' E 031°02'0 0.0
2016-Nov-28 03:31S 29°52' E 031°02'1 0.8
2016-Nov-28 02:33S 29°53' E 031°02'1 0.7
2016-Nov-28 01:25S 29°52' E 031°02'0 0.0
2016-Nov-28 00:28S 29°52' E 031°02'0 0.0
2016-Nov-27 23:22S 29°52' E 031°02'0 0.1
2016-Nov-27 22:34S 29°52' E 031°02'0 0.0
2016-Nov-27 21:19S 29°52' E 031°02'0 0.0
2016-Nov-27 20:31S 29°52' E 031°02'0 0.0
2016-Nov-27 19:31S 29°52' E 031°02'0 0.0
2016-Nov-27 18:31S 29°52' E 031°02'1 0.8
2016-Nov-27 17:33S 29°53' E 031°02'1 0.7
2016-Nov-27 16:26S 29°52' E 031°02'0 0.0
2016-Nov-27 15:32S 29°52' E 031°02'0 0.0
2016-Nov-27 14:32S 29°52' E 031°02'0 0.0
2016-Nov-27 13:32S 29°52' E 031°02'0 0.0
2016-Nov-27 12:26S 29°52' E 031°02'1 1.2
2016-Nov-27 11:33S 29°53' E 031°03'1 1.0
2016-Nov-27 10:32S 29°52' E 031°02'0 0.1
2016-Nov-27 09:32S 29°52' E 031°02'0 0.0
2016-Nov-27 08:32S 29°52' E 031°02'0 0.0
2016-Nov-27 07:32S 29°52' E 031°02'0 0.2
2016-Nov-27 06:32S 29°52' E 031°02'2 1.6
2016-Nov-27 05:33S 29°53' E 031°00'2 1.7
2016-Nov-27 04:33S 29°52' E 031°02'0 0.0
2016-Nov-27 03:27S 29°52' E 031°02'1 1.3
2016-Nov-27 02:31S 29°53' E 031°01'1 1.2
2016-Nov-27 01:33S 29°52' E 031°02'0 0.0
2016-Nov-27 00:27S 29°52' E 031°02'0 0.0
2016-Nov-26 23:30S 29°52' E 031°02'0 0.0
2016-Nov-26 22:33S 29°52' E 031°02'0 0.0
2016-Nov-26 21:31S 29°52' E 031°02'1 1.4
2016-Nov-26 20:33S 29°52' E 031°03'0 0.4
2016-Nov-26 19:31S 29°52' E 031°03'1 0.7
2016-Nov-26 18:32S 29°52' E 031°02'1 0.8
2016-Nov-26 17:34S 29°53' E 031°03'1 1.2
2016-Nov-26 16:31S 29°52' E 031°02'0 0.0
2016-Nov-26 15:28S 29°52' E 031°02'1 0.9
2016-Nov-26 14:33S 29°53' E 031°02'1 0.6
2016-Nov-26 13:32S 29°52' E 031°02'0 0.3
2016-Nov-26 12:32S 29°52' E 031°02'0 0.0
2016-Nov-26 11:33S 29°52' E 031°02'0 0.4
2016-Nov-26 10:33S 29°52' E 031°02'0 0.4
2016-Nov-26 09:32S 29°52' E 031°02'0 0.0
2016-Nov-26 08:29S 29°52' E 031°02'1 1.0
2016-Nov-26 07:33S 29°53' E 031°02'1 0.6
2016-Nov-26 06:33S 29°52' E 031°02'0 0.3
2016-Nov-26 05:33S 29°53' E 031°02'1 0.7
2016-Nov-26 04:30S 29°52' E 031°02'0 0.0
2016-Nov-26 03:30S 29°52' E 031°02'0 0.0
2016-Nov-26 02:30S 29°52' E 031°02'0 0.0
2016-Nov-26 01:33S 29°52' E 031°02'1 1.5
2016-Nov-26 00:33S 29°53' E 031°02'1 0.6
2016-Nov-25 23:33S 29°53' E 031°03'1 0.8
2016-Nov-25 22:33S 29°53' E 031°02'1 0.7
2016-Nov-25 21:33S 29°53' E 031°03'1 1.2
2016-Nov-25 20:27S 29°52' E 031°02'0 0.0
2016-Nov-25 19:27S 29°52' E 031°02'1 1.5
2016-Nov-25 18:33S 29°53' E 031°03'0 0.1
2016-Nov-25 17:33S 29°53' E 031°03'1 1.3
2016-Nov-25 16:29S 29°52' E 031°02'0 0.0
2016-Nov-25 15:26S 29°52' E 031°02'1 1.6
2016-Nov-25 14:31S 29°53' E 031°03'0 0.5
2016-Nov-25 13:33S 29°53' E 031°03'1 1.4
2016-Nov-25 12:33S 29°52' E 031°02'1 1.2
2016-Nov-25 11:31S 29°53' E 031°01'1 0.6
2016-Nov-25 09:33S 29°52' E 031°02'1 1.1
2016-Nov-25 08:33S 29°53' E 031°03'2 1.6
2016-Nov-25 07:19S 29°52' E 031°01'1 1.5
2016-Nov-25 06:33S 29°52' E 031°02'1 1.0
2016-Nov-25 05:31S 29°53' E 031°03'1 1.4
2016-Nov-25 04:29S 29°52' E 031°02'0 0.0
2016-Nov-25 03:29S 29°52' E 031°02'0 0.0
2016-Nov-25 02:23S 29°52' E 031°02'0 0.0
2016-Nov-25 01:32S 29°52' E 031°02'0 0.0
2016-Nov-25 00:26S 29°52' E 031°02'1 0.8
2016-Nov-24 23:33S 29°52' E 031°02'1 0.7
2016-Nov-24 22:32S 29°52' E 031°02'0 0.0
2016-Nov-24 21:32S 29°52' E 031°02'0 0.0
2016-Nov-24 20:29S 29°52' E 031°02'0 0.0
2016-Nov-24 19:29S 29°52' E 031°02'0 0.0
2016-Nov-24 18:29S 29°52' E 031°02'1 1.3
2016-Nov-24 17:33S 29°53' E 031°02'1 1.1
2016-Nov-24 16:30S 29°52' E 031°02'0 0.0
2016-Nov-24 15:33S 29°52' E 031°02'0 0.0
2016-Nov-24 14:33S 29°52' E 031°02'1 0.5
2016-Nov-24 13:33S 29°52' E 031°02'  

Dump ship's entire track history